createdAt,value
2023-05-01T00:00:56.977Z,445.00
2023-05-01T00:01:56.867Z,446.00
2023-05-01T00:02:56.876Z,449.00
2023-05-01T00:03:56.919Z,449.00
2023-05-01T00:04:56.741Z,450.00
2023-05-01T00:05:56.570Z,447.00
2023-05-01T00:06:56.490Z,449.00
2023-05-01T00:07:56.410Z,447.00
2023-05-01T00:08:56.331Z,453.00
2023-05-01T00:09:56.502Z,441.00
2023-05-01T00:10:56.262Z,437.00
2023-05-01T00:11:56.308Z,434.00
2023-05-01T00:12:56.171Z,431.00
2023-05-01T00:13:56.135Z,430.00
2023-05-01T00:14:56.203Z,426.00
2023-05-01T00:15:56.423Z,426.00
2023-05-01T00:16:56.590Z,426.00
2023-05-01T00:17:56.709Z,429.00
2023-05-01T00:18:56.779Z,430.00
2023-05-01T00:19:57.234Z,429.00
2023-05-01T00:20:56.820Z,431.00
2023-05-01T00:21:56.764Z,432.00
2023-05-01T00:22:56.712Z,433.00
2023-05-01T00:23:56.739Z,434.00
2023-05-01T00:24:56.691Z,436.00
2023-05-01T00:25:56.944Z,435.00
2023-05-01T00:26:57.118Z,438.00
2023-05-01T00:27:57.249Z,435.00
2023-05-01T00:28:57.415Z,439.00
2023-05-01T00:29:57.888Z,440.00
2023-05-01T00:30:57.501Z,439.00
2023-05-01T00:31:57.531Z,440.00
2023-05-01T00:32:57.400Z,439.00
2023-05-01T00:33:57.418Z,435.00
2023-05-01T00:34:57.368Z,434.00
2023-05-01T00:35:57.629Z,434.00
2023-05-01T00:36:57.719Z,435.00
2023-05-01T00:37:57.872Z,436.00
2023-05-01T00:38:58.097Z,438.00
2023-05-01T00:39:58.586Z,437.00
2023-05-01T00:40:58.282Z,436.00
2023-05-01T00:41:58.132Z,432.00
2023-05-01T00:42:58.071Z,434.00
2023-05-01T00:43:57.993Z,434.00
2023-05-01T00:44:58.072Z,438.00
2023-05-01T00:45:58.353Z,437.00
2023-05-01T00:46:58.606Z,434.00
2023-05-01T00:47:58.912Z,434.00
2023-05-01T00:48:58.921Z,433.00
2023-05-01T00:49:59.186Z,435.00
2023-05-01T00:50:59.346Z,436.00
2023-05-01T00:51:59.555Z,435.00
2023-05-01T00:52:59.802Z,436.00
2023-05-01T00:53:59.959Z,437.00
2023-05-01T00:55:00.218Z,438.00
2023-05-01T00:56:00.360Z,438.00
2023-05-01T00:57:00.562Z,441.00
2023-05-01T00:58:00.754Z,443.00
2023-05-01T00:59:00.941Z,445.00
2023-05-01T01:00:01.148Z,446.00
2023-05-01T01:01:01.370Z,443.00
2023-05-01T01:02:01.453Z,443.00
2023-05-01T01:03:01.829Z,441.00
2023-05-01T01:04:01.835Z,438.00
2023-05-01T01:05:01.963Z,437.00
2023-05-01T01:06:02.251Z,435.00
2023-05-01T01:07:02.403Z,432.00
2023-05-01T01:08:02.576Z,434.00
2023-05-01T01:09:02.787Z,439.00
2023-05-01T01:10:03.021Z,439.00
2023-05-01T01:11:03.207Z,438.00
2023-05-01T01:12:03.398Z,434.00
2023-05-01T01:13:03.603Z,432.00
2023-05-01T01:14:03.899Z,433.00
2023-05-01T01:15:03.849Z,436.00
2023-05-01T01:16:04.121Z,437.00
2023-05-01T01:17:04.384Z,436.00
2023-05-01T01:18:04.413Z,434.00
2023-05-01T01:19:04.558Z,431.00
2023-05-01T01:20:04.776Z,431.00
2023-05-01T01:21:04.948Z,431.00
2023-05-01T01:22:05.120Z,431.00
2023-05-01T01:23:05.278Z,432.00
2023-05-01T01:24:05.437Z,429.00
2023-05-01T01:25:05.629Z,430.00
2023-05-01T01:26:05.836Z,431.00
2023-05-01T01:27:05.900Z,434.00
2023-05-01T01:28:06.129Z,439.00
2023-05-01T01:29:06.306Z,439.00
2023-05-01T01:30:06.505Z,439.00
2023-05-01T01:31:06.744Z,438.00
2023-05-01T01:32:06.766Z,438.00
2023-05-01T01:33:06.987Z,438.00
2023-05-01T01:34:07.148Z,441.00
2023-05-01T01:35:07.319Z,442.00
2023-05-01T01:36:07.660Z,442.00
2023-05-01T01:37:07.617Z,444.00
2023-05-01T01:38:07.845Z,449.00
2023-05-01T01:39:08.004Z,450.00
2023-05-01T01:40:08.160Z,449.00
2023-05-01T01:41:08.298Z,452.00
2023-05-01T01:42:08.478Z,450.00
2023-05-01T01:43:08.650Z,449.00
2023-05-01T01:44:08.897Z,448.00
2023-05-01T01:45:08.895Z,449.00
2023-05-01T01:46:09.169Z,450.00
2023-05-01T01:47:09.236Z,452.00
2023-05-01T01:48:09.436Z,452.00
2023-05-01T01:49:09.535Z,453.00
2023-05-01T01:50:09.700Z,450.00
2023-05-01T01:51:09.876Z,447.00
2023-05-01T01:52:09.922Z,447.00
2023-05-01T01:53:10.167Z,445.00
2023-05-01T01:54:10.368Z,440.00
2023-05-01T01:55:10.496Z,441.00
2023-05-01T01:56:10.576Z,442.00
2023-05-01T01:57:10.777Z,445.00
2023-05-01T01:58:10.936Z,444.00
2023-05-01T01:59:11.107Z,447.00
2023-05-01T02:00:11.420Z,447.00
2023-05-01T02:01:11.443Z,449.00
2023-05-01T02:02:11.683Z,450.00
2023-05-01T02:03:11.802Z,451.00
2023-05-01T02:04:12.015Z,453.00
2023-05-01T02:05:12.105Z,457.00
2023-05-01T02:06:12.340Z,458.00
2023-05-01T02:07:12.366Z,457.00
2023-05-01T02:08:12.473Z,456.00
2023-05-01T02:09:12.597Z,455.00
2023-05-01T02:10:12.814Z,456.00
2023-05-01T02:11:13.004Z,455.00
2023-05-01T02:12:13.104Z,456.00
2023-05-01T02:13:13.410Z,455.00
2023-05-01T02:14:13.437Z,456.00
2023-05-01T02:15:13.635Z,456.00
2023-05-01T02:16:13.846Z,455.00
2023-05-01T02:17:13.999Z,453.00
2023-05-01T02:18:14.067Z,452.00
2023-05-01T02:19:14.301Z,450.00
2023-05-01T02:20:14.502Z,446.00
2023-05-01T02:21:14.662Z,444.00
2023-05-01T02:22:14.855Z,446.00
2023-05-01T02:23:15.016Z,447.00
2023-05-01T02:24:15.167Z,446.00
2023-05-01T02:25:15.447Z,446.00
2023-05-01T02:26:15.456Z,447.00
2023-05-01T02:27:15.656Z,450.00
2023-05-01T02:28:15.936Z,454.00
2023-05-01T02:29:16.009Z,455.00
2023-05-01T02:30:16.214Z,454.00
2023-05-01T02:31:16.370Z,455.00
2023-05-01T02:32:16.521Z,455.00
2023-05-01T02:33:16.691Z,457.00
2023-05-01T02:34:16.838Z,457.00
2023-05-01T02:35:16.998Z,455.00
2023-05-01T02:36:17.180Z,456.00
2023-05-01T02:37:17.282Z,455.00
2023-05-01T02:38:17.439Z,453.00
2023-05-01T02:39:17.613Z,455.00
2023-05-01T02:40:17.799Z,456.00
2023-05-01T02:41:17.971Z,457.00
2023-05-01T02:42:18.145Z,459.00
2023-05-01T02:43:18.241Z,458.00
2023-05-01T02:44:18.446Z,457.00
2023-05-01T02:45:18.645Z,454.00
2023-05-01T02:46:18.586Z,451.00
2023-05-01T02:47:18.813Z,452.00
2023-05-01T02:48:18.843Z,451.00
2023-05-01T02:49:18.941Z,448.00
2023-05-01T02:50:19.350Z,449.00
2023-05-01T02:51:19.339Z,447.00
2023-05-01T02:52:19.452Z,448.00
2023-05-01T02:53:19.576Z,449.00
2023-05-01T02:54:19.759Z,447.00
2023-05-01T02:55:20.009Z,448.00
2023-05-01T02:56:20.128Z,450.00
2023-05-01T02:57:20.315Z,449.00
2023-05-01T02:58:20.520Z,451.00
2023-05-01T02:59:20.523Z,452.00
2023-05-01T03:00:20.793Z,453.00
2023-05-01T03:01:20.886Z,451.00
2023-05-01T03:02:21.072Z,452.00
2023-05-01T03:03:21.282Z,454.00
2023-05-01T03:04:21.404Z,452.00
2023-05-01T03:05:21.548Z,449.00
2023-05-01T03:06:21.688Z,443.00
2023-05-01T03:07:21.758Z,437.00
2023-05-01T03:08:21.997Z,438.00
2023-05-01T03:09:22.504Z,447.00
2023-05-01T03:10:21.953Z,451.00
2023-05-01T03:11:21.879Z,450.00
2023-05-01T03:12:21.778Z,449.00
2023-05-01T03:13:21.669Z,449.00
2023-05-01T03:14:21.767Z,447.00
2023-05-01T03:15:22.052Z,446.00
2023-05-01T03:16:22.139Z,447.00
2023-05-01T03:17:22.238Z,445.00
2023-05-01T03:18:22.507Z,444.00
2023-05-01T03:19:22.641Z,445.00
2023-05-01T03:20:22.779Z,447.00
2023-05-01T03:21:23.076Z,448.00
2023-05-01T03:22:23.244Z,446.00
2023-05-01T03:23:23.415Z,446.00
2023-05-01T03:24:23.678Z,445.00
2023-05-01T03:25:23.763Z,448.00
2023-05-01T03:26:23.954Z,448.00
2023-05-01T03:27:24.111Z,446.00
2023-05-01T03:28:24.407Z,448.00
2023-05-01T03:29:24.367Z,446.00
2023-05-01T03:30:24.539Z,448.00
2023-05-01T03:31:24.879Z,451.00
2023-05-01T03:32:24.958Z,449.00
2023-05-01T03:33:25.039Z,446.00
2023-05-01T03:34:25.190Z,445.00
2023-05-01T03:35:25.416Z,444.00
2023-05-01T03:36:25.570Z,444.00
2023-05-01T03:37:25.756Z,446.00
2023-05-01T03:38:25.997Z,449.00
2023-05-01T03:39:26.108Z,454.00
2023-05-01T03:40:26.249Z,460.00
2023-05-01T03:41:26.562Z,465.00
2023-05-01T03:42:26.637Z,463.00
2023-05-01T03:43:26.835Z,460.00
2023-05-01T03:44:26.976Z,458.00
2023-05-01T03:45:27.165Z,456.00
2023-05-01T03:46:27.475Z,456.00
2023-05-01T03:47:27.553Z,455.00
2023-05-01T03:48:27.857Z,454.00
2023-05-01T03:49:27.915Z,449.00
2023-05-01T03:50:28.035Z,452.00
2023-05-01T03:51:28.257Z,453.00
2023-05-01T03:52:28.371Z,455.00
2023-05-01T03:53:28.540Z,452.00
2023-05-01T03:54:28.712Z,453.00
2023-05-01T03:55:28.876Z,455.00
2023-05-01T03:56:29.124Z,452.00
2023-05-01T03:57:29.265Z,450.00
2023-05-01T03:58:29.488Z,448.00
2023-05-01T03:59:29.657Z,447.00
2023-05-01T04:00:29.803Z,449.00
2023-05-01T04:01:29.964Z,446.00
2023-05-01T04:02:30.248Z,446.00
2023-05-01T04:03:30.281Z,447.00
2023-05-01T04:04:30.585Z,450.00
2023-05-01T04:05:30.681Z,451.00
2023-05-01T04:06:30.891Z,452.00
2023-05-01T04:07:31.001Z,451.00
2023-05-01T04:08:31.154Z,451.00
2023-05-01T04:09:31.319Z,451.00
2023-05-01T04:10:31.498Z,451.00
2023-05-01T04:11:31.751Z,449.00
2023-05-01T04:12:31.847Z,450.00
2023-05-01T04:13:31.997Z,451.00
2023-05-01T04:14:32.168Z,450.00
2023-05-01T04:15:32.361Z,450.00
2023-05-01T04:16:32.717Z,450.00
2023-05-01T04:17:32.888Z,447.00
2023-05-01T04:18:32.972Z,429.00
2023-05-01T04:19:33.132Z,433.00
2023-05-01T04:20:33.351Z,437.00
2023-05-01T04:21:33.501Z,434.00
2023-05-01T04:22:33.743Z,441.00
2023-05-01T04:23:33.917Z,440.00
2023-05-01T04:24:34.111Z,445.00
2023-05-01T04:25:34.246Z,447.00
2023-05-01T04:26:34.497Z,449.00
2023-05-01T04:27:34.649Z,451.00
2023-05-01T04:28:34.898Z,455.00
2023-05-01T04:29:35.035Z,454.00
2023-05-01T04:30:35.181Z,453.00
2023-05-01T04:31:35.431Z,454.00
2023-05-01T04:32:35.697Z,437.00
2023-05-01T04:33:35.788Z,446.00
2023-05-01T04:34:35.944Z,448.00
2023-05-01T04:35:36.161Z,451.00
2023-05-01T04:36:36.298Z,452.00
2023-05-01T04:37:36.517Z,451.00
2023-05-01T04:38:36.806Z,448.00
2023-05-01T04:39:36.938Z,445.00
2023-05-01T04:40:37.083Z,443.00
2023-05-01T04:41:37.313Z,443.00
2023-05-01T04:42:37.528Z,445.00
2023-05-01T04:43:37.684Z,445.00
2023-05-01T04:44:37.915Z,446.00
2023-05-01T04:45:38.081Z,446.00
2023-05-01T04:46:38.357Z,447.00
2023-05-01T04:47:38.592Z,447.00
2023-05-01T04:48:38.729Z,447.00
2023-05-01T04:49:38.846Z,447.00
2023-05-01T04:50:39.084Z,446.00
2023-05-01T04:51:39.259Z,444.00
2023-05-01T04:52:39.438Z,443.00
2023-05-01T04:53:39.633Z,442.00
2023-05-01T04:54:39.823Z,441.00
2023-05-01T04:55:39.976Z,439.00
2023-05-01T04:56:40.151Z,439.00
2023-05-01T04:57:40.381Z,440.00
2023-05-01T04:58:40.532Z,441.00
2023-05-01T04:59:40.813Z,441.00
2023-05-01T05:00:40.956Z,441.00
2023-05-01T05:01:41.260Z,445.00
2023-05-01T05:02:41.365Z,444.00
2023-05-01T05:03:41.477Z,443.00
2023-05-01T05:04:41.565Z,441.00
2023-05-01T05:05:41.717Z,442.00
2023-05-01T05:06:41.978Z,442.00
2023-05-01T05:07:42.133Z,442.00
2023-05-01T05:08:42.302Z,442.00
2023-05-01T05:09:42.475Z,443.00
2023-05-01T05:10:42.640Z,442.00
2023-05-01T05:11:42.801Z,441.00
2023-05-01T05:12:42.913Z,442.00
2023-05-01T05:13:43.095Z,437.00
2023-05-01T05:14:43.306Z,437.00
2023-05-01T05:15:43.460Z,432.00
2023-05-01T05:16:43.823Z,430.00
2023-05-01T05:17:43.886Z,436.00
2023-05-01T05:18:44.003Z,438.00
2023-05-01T05:19:44.156Z,436.00
2023-05-01T05:20:44.302Z,437.00
2023-05-01T05:21:44.442Z,436.00
2023-05-01T05:22:44.654Z,437.00
2023-05-01T05:23:44.823Z,439.00
2023-05-01T05:24:44.929Z,441.00
2023-05-01T05:25:45.089Z,439.00
2023-05-01T05:26:45.540Z,440.00
2023-05-01T05:27:45.503Z,441.00
2023-05-01T05:28:45.700Z,440.00
2023-05-01T05:29:45.796Z,441.00
2023-05-01T05:30:46.046Z,441.00
2023-05-01T05:31:46.201Z,441.00
2023-05-01T05:32:46.390Z,442.00
2023-05-01T05:33:46.624Z,444.00
2023-05-01T05:34:46.809Z,443.00
2023-05-01T05:35:46.983Z,443.00
2023-05-01T05:36:47.325Z,441.00
2023-05-01T05:37:47.457Z,439.00
2023-05-01T05:38:47.690Z,437.00
2023-05-01T05:39:47.805Z,436.00
2023-05-01T05:40:48.045Z,432.00
2023-05-01T05:41:48.158Z,432.00
2023-05-01T05:42:48.397Z,432.00
2023-05-01T05:43:48.557Z,432.00
2023-05-01T05:44:48.781Z,435.00
2023-05-01T05:45:49.024Z,433.00
2023-05-01T05:46:49.151Z,434.00
2023-05-01T05:47:49.370Z,435.00
2023-05-01T05:48:49.578Z,438.00
2023-05-01T05:49:49.739Z,438.00
2023-05-01T05:50:49.898Z,439.00
2023-05-01T05:51:50.107Z,440.00
2023-05-01T05:52:50.282Z,442.00
2023-05-01T05:53:50.462Z,441.00
2023-05-01T05:54:50.850Z,440.00
2023-05-01T05:55:50.921Z,441.00
2023-05-01T05:56:51.079Z,440.00
2023-05-01T05:57:51.293Z,439.00
2023-05-01T05:58:51.514Z,441.00
2023-05-01T05:59:51.690Z,439.00
2023-05-01T06:00:51.860Z,436.00
2023-05-01T06:01:52.065Z,435.00
2023-05-01T06:02:52.249Z,434.00
2023-05-01T06:03:52.459Z,435.00
2023-05-01T06:04:52.622Z,436.00
2023-05-01T06:05:52.843Z,438.00
2023-05-01T06:06:53.050Z,439.00
2023-05-01T06:07:53.167Z,439.00
2023-05-01T06:08:53.349Z,437.00
2023-05-01T06:09:53.736Z,437.00
2023-05-01T06:10:53.709Z,434.00
2023-05-01T06:11:53.910Z,431.00
2023-05-01T06:12:58.581Z,431.00
2023-05-01T06:13:54.900Z,435.00
2023-05-01T06:14:53.806Z,434.00
2023-05-01T06:15:53.719Z,433.00
2023-05-01T06:16:53.716Z,433.00
2023-05-01T06:17:53.694Z,435.00
2023-05-01T06:18:53.523Z,438.00
2023-05-01T06:19:53.633Z,436.00
2023-05-01T06:20:53.324Z,433.00
2023-05-01T06:21:53.227Z,433.00
2023-05-01T06:22:53.133Z,436.00
2023-05-01T06:23:53.055Z,438.00
2023-05-01T06:24:53.061Z,436.00
2023-05-01T06:25:53.036Z,436.00
2023-05-01T06:26:52.970Z,436.00
2023-05-01T06:27:52.934Z,437.00
2023-05-01T06:28:52.990Z,438.00
2023-05-01T06:29:53.319Z,438.00
2023-05-01T06:30:53.432Z,437.00
2023-05-01T06:31:53.568Z,438.00
2023-05-01T06:32:53.738Z,437.00
2023-05-01T06:33:53.796Z,438.00
2023-05-01T06:34:53.956Z,438.00
2023-05-01T06:35:54.178Z,439.00
2023-05-01T06:36:54.371Z,437.00
2023-05-01T06:37:54.535Z,435.00
2023-05-01T06:38:54.722Z,434.00
2023-05-01T06:39:55.302Z,435.00
2023-05-01T06:40:54.865Z,435.00
2023-05-01T06:41:54.849Z,438.00
2023-05-01T06:42:54.803Z,435.00
2023-05-01T06:43:54.760Z,437.00
2023-05-01T06:44:54.728Z,438.00
2023-05-01T06:45:54.687Z,439.00
2023-05-01T06:46:54.711Z,441.00
2023-05-01T06:47:54.691Z,439.00
2023-05-01T06:48:54.594Z,440.00
2023-05-01T06:49:54.752Z,438.00
2023-05-01T06:50:54.696Z,436.00
2023-05-01T06:51:54.963Z,438.00
2023-05-01T06:52:55.115Z,439.00
2023-05-01T06:53:55.231Z,441.00
2023-05-01T06:54:55.516Z,441.00
2023-05-01T06:55:55.708Z,442.00
2023-05-01T06:56:55.891Z,442.00
2023-05-01T06:57:56.052Z,441.00
2023-05-01T06:58:56.244Z,440.00
2023-05-01T06:59:56.691Z,441.00
2023-05-01T07:00:56.591Z,442.00
2023-05-01T07:01:56.895Z,442.00
2023-05-01T07:02:57.246Z,442.00
2023-05-01T07:03:57.131Z,441.00
2023-05-01T07:04:57.321Z,441.00
2023-05-01T07:05:57.486Z,442.00
2023-05-01T07:06:57.706Z,441.00
2023-05-01T07:08:01.599Z,444.00
2023-05-01T07:08:57.753Z,444.00
2023-05-01T07:09:57.969Z,445.00
2023-05-01T07:10:57.567Z,448.00
2023-05-01T07:11:57.571Z,449.00
2023-05-01T07:12:57.372Z,448.00
2023-05-01T07:13:57.281Z,446.00
2023-05-01T07:14:57.172Z,446.00
2023-05-01T07:15:57.111Z,444.00
2023-05-01T07:16:57.150Z,442.00
2023-05-01T07:17:57.269Z,441.00
2023-05-01T07:18:57.418Z,440.00
2023-05-01T07:19:57.742Z,439.00
2023-05-01T07:20:57.669Z,439.00
2023-05-01T07:21:57.861Z,441.00
2023-05-01T07:22:58.054Z,445.00
2023-05-01T07:23:58.191Z,444.00
2023-05-01T07:24:58.315Z,446.00
2023-05-01T07:25:58.480Z,451.00
2023-05-01T07:26:58.663Z,449.00
2023-05-01T07:27:58.773Z,446.00
2023-05-01T07:28:58.899Z,444.00
2023-05-01T07:29:59.224Z,444.00
2023-05-01T07:30:59.220Z,444.00
2023-05-01T07:31:59.591Z,444.00
2023-05-01T07:32:59.547Z,443.00
2023-05-01T07:33:59.597Z,441.00
2023-05-01T07:34:59.716Z,443.00
2023-05-01T07:35:59.881Z,440.00
2023-05-01T07:37:00.033Z,440.00
2023-05-01T07:38:00.164Z,440.00
2023-05-01T07:39:00.277Z,440.00
2023-05-01T07:40:00.413Z,439.00
2023-05-01T07:41:00.547Z,438.00
2023-05-01T07:42:00.693Z,438.00
2023-05-01T07:43:00.843Z,441.00
2023-05-01T07:44:00.986Z,440.00
2023-05-01T07:45:01.214Z,439.00
2023-05-01T07:46:01.296Z,437.00
2023-05-01T07:47:01.432Z,442.00
2023-05-01T07:48:01.682Z,438.00
2023-05-01T07:49:01.824Z,441.00
2023-05-01T07:50:01.982Z,442.00
2023-05-01T07:51:02.094Z,439.00
2023-05-01T07:52:02.355Z,433.00
2023-05-01T07:53:02.534Z,434.00
2023-05-01T07:54:02.684Z,434.00
2023-05-01T07:55:02.877Z,434.00
2023-05-01T07:56:02.969Z,433.00
2023-05-01T07:57:03.123Z,435.00
2023-05-01T07:58:03.269Z,436.00
2023-05-01T07:59:03.440Z,437.00
2023-05-01T08:00:03.608Z,437.00
2023-05-01T08:01:03.742Z,436.00
2023-05-01T08:02:03.953Z,435.00
2023-05-01T08:03:04.114Z,434.00
2023-05-01T08:04:04.314Z,432.00
2023-05-01T08:05:04.438Z,433.00
2023-05-01T08:06:04.581Z,434.00
2023-05-01T08:07:04.792Z,435.00
2023-05-01T08:08:04.900Z,435.00
2023-05-01T08:09:05.120Z,437.00
2023-05-01T08:10:05.490Z,434.00
2023-05-01T08:11:05.447Z,438.00
2023-05-01T08:12:05.587Z,438.00
2023-05-01T08:13:05.794Z,437.00
2023-05-01T08:14:05.953Z,435.00
2023-05-01T08:15:06.068Z,436.00
2023-05-01T08:16:06.259Z,436.00
2023-05-01T08:17:06.460Z,438.00
2023-05-01T08:18:06.605Z,437.00
2023-05-01T08:19:06.684Z,439.00
2023-05-01T08:20:06.821Z,438.00
2023-05-01T08:21:06.938Z,438.00
2023-05-01T08:22:07.058Z,441.00
2023-05-01T08:23:07.224Z,439.00
2023-05-01T08:24:07.432Z,437.00
2023-05-01T08:25:07.523Z,435.00
2023-05-01T08:26:07.739Z,436.00
2023-05-01T08:27:07.878Z,433.00
2023-05-01T08:28:08.075Z,432.00
2023-05-01T08:29:08.263Z,433.00
2023-05-01T08:30:08.362Z,430.00
2023-05-01T08:31:08.562Z,433.00
2023-05-01T08:32:09.386Z,432.00
2023-05-01T08:33:08.288Z,430.00
2023-05-01T08:34:08.131Z,426.00
2023-05-01T08:35:08.057Z,422.00
2023-05-01T08:36:07.949Z,422.00
2023-05-01T08:37:07.797Z,425.00
2023-05-01T08:38:07.676Z,423.00
2023-05-01T08:39:07.553Z,426.00
2023-05-01T08:40:07.430Z,426.00
2023-05-01T08:41:07.315Z,430.00
2023-05-01T08:42:07.183Z,432.00
2023-05-01T08:43:07.205Z,429.00
2023-05-01T08:44:07.075Z,418.00
2023-05-01T08:45:06.930Z,432.00
2023-05-01T08:46:06.842Z,436.00
2023-05-01T08:47:06.779Z,436.00
2023-05-01T08:48:06.672Z,436.00
2023-05-01T08:49:06.473Z,436.00
2023-05-01T08:50:06.349Z,434.00
2023-05-01T08:51:07.236Z,437.00
2023-05-01T08:52:06.106Z,435.00
2023-05-01T08:53:05.968Z,433.00
2023-05-01T08:54:05.855Z,433.00
2023-05-01T08:55:05.748Z,433.00
2023-05-01T08:56:05.596Z,432.00
2023-05-01T08:57:05.467Z,432.00
2023-05-01T08:58:05.338Z,434.00
2023-05-01T08:59:05.271Z,432.00
2023-05-01T09:00:05.081Z,429.00
2023-05-01T09:01:04.972Z,428.00
2023-05-01T09:02:04.923Z,428.00
2023-05-01T09:03:04.919Z,429.00
2023-05-01T09:04:04.797Z,430.00
2023-05-01T09:05:04.603Z,431.00
2023-05-01T09:06:04.626Z,429.00
2023-05-01T09:07:04.494Z,430.00
2023-05-01T09:08:04.415Z,429.00
2023-05-01T09:09:04.363Z,430.00
2023-05-01T09:10:04.318Z,430.00
2023-05-01T09:11:04.194Z,429.00
2023-05-01T09:12:04.145Z,426.00
2023-05-01T09:13:04.065Z,427.00
2023-05-01T09:14:04.040Z,430.00
2023-05-01T09:15:03.871Z,428.00
2023-05-01T09:16:03.819Z,428.00
2023-05-01T09:17:03.731Z,423.00
2023-05-01T09:18:04.111Z,422.00
2023-05-01T09:19:03.601Z,424.00
2023-05-01T09:20:03.514Z,424.00
2023-05-01T09:21:03.530Z,427.00
2023-05-01T09:22:03.407Z,427.00
2023-05-01T09:23:03.339Z,426.00
2023-05-01T09:24:03.263Z,428.00
2023-05-01T09:25:03.201Z,428.00
2023-05-01T09:26:03.119Z,426.00
2023-05-01T09:27:03.074Z,424.00
2023-05-01T09:28:03.007Z,425.00
2023-05-01T09:29:02.920Z,429.00
2023-05-01T09:30:02.817Z,427.00
2023-05-01T09:31:02.740Z,430.00
2023-05-01T09:32:02.722Z,426.00
2023-05-01T09:33:02.616Z,427.00
2023-05-01T09:34:02.651Z,434.00
2023-05-01T09:35:02.759Z,455.00
2023-05-01T09:36:02.890Z,433.00
2023-05-01T09:37:03.180Z,423.00
2023-05-01T09:38:03.198Z,430.00
2023-05-01T09:39:03.349Z,434.00
2023-05-01T09:40:03.549Z,432.00
2023-05-01T09:41:03.628Z,433.00
2023-05-01T09:42:04.597Z,430.00
2023-05-01T09:43:03.708Z,430.00
2023-05-01T09:44:03.654Z,424.00
2023-05-01T09:45:03.562Z,424.00
2023-05-01T09:46:03.598Z,426.00
2023-05-01T09:47:03.458Z,426.00
2023-05-01T09:48:03.470Z,420.00
2023-05-01T09:49:03.290Z,419.00
2023-05-01T09:50:03.245Z,420.00
2023-05-01T09:51:03.116Z,421.00
2023-05-01T09:52:03.006Z,420.00
2023-05-01T09:53:02.902Z,419.00
2023-05-01T09:54:02.852Z,417.00
2023-05-01T09:55:02.712Z,414.00
2023-05-01T09:56:02.601Z,413.00
2023-05-01T09:57:02.505Z,415.00
2023-05-01T09:58:02.404Z,418.00
2023-05-01T09:59:02.270Z,418.00
2023-05-01T10:00:02.348Z,418.00
2023-05-01T10:01:02.550Z,419.00
2023-05-01T10:02:02.694Z,415.00
2023-05-01T10:03:02.941Z,417.00
2023-05-01T10:04:02.989Z,423.00
2023-05-01T10:05:03.218Z,423.00
2023-05-01T10:06:03.326Z,421.00
2023-05-01T10:07:03.502Z,421.00
2023-05-01T10:08:03.714Z,418.00
2023-05-01T10:09:03.714Z,420.00
2023-05-01T10:10:04.100Z,418.00
2023-05-01T10:11:03.713Z,416.00
2023-05-01T10:12:03.551Z,418.00
2023-05-01T10:13:03.401Z,417.00
2023-05-01T10:14:03.287Z,429.00
2023-05-01T10:15:10.780Z,424.00
2023-05-01T10:16:03.968Z,424.00
2023-05-01T10:17:02.827Z,421.00
2023-05-01T10:18:02.820Z,420.00
2023-05-01T10:19:04.316Z,420.00
2023-05-01T10:20:02.482Z,418.00
2023-05-01T10:21:02.449Z,418.00
2023-05-01T10:22:02.593Z,415.00
2023-05-01T10:23:02.741Z,415.00
2023-05-01T10:24:02.881Z,415.00
2023-05-01T10:25:02.947Z,417.00
2023-05-01T10:26:04.093Z,418.00
2023-05-01T10:27:03.040Z,418.00
2023-05-01T10:28:02.935Z,418.00
2023-05-01T10:29:02.982Z,416.00
2023-05-01T10:30:02.740Z,419.00
2023-05-01T10:31:02.666Z,419.00
2023-05-01T10:32:02.793Z,418.00
2023-05-01T10:33:02.509Z,416.00
2023-05-01T10:34:02.275Z,412.00
2023-05-01T10:35:02.127Z,414.00
2023-05-01T10:36:02.064Z,413.00
2023-05-01T10:37:01.839Z,415.00
2023-05-01T10:38:01.728Z,413.00
2023-05-01T10:39:01.580Z,416.00
2023-05-01T10:40:01.394Z,417.00
2023-05-01T10:41:01.341Z,415.00
2023-05-01T10:42:01.116Z,417.00
2023-05-01T10:43:00.963Z,417.00
2023-05-01T10:44:00.866Z,420.00
2023-05-01T10:45:01.082Z,418.00
2023-05-01T10:46:00.975Z,420.00
2023-05-01T10:47:01.146Z,419.00
2023-05-01T10:48:01.304Z,418.00
2023-05-01T10:49:01.339Z,415.00
2023-05-01T10:50:01.424Z,415.00
2023-05-01T10:51:01.557Z,416.00
2023-05-01T10:52:01.688Z,416.00
2023-05-01T10:53:01.843Z,417.00
2023-05-01T10:54:01.978Z,416.00
2023-05-01T10:55:02.406Z,417.00
2023-05-01T10:56:02.241Z,421.00
2023-05-01T10:57:02.371Z,419.00
2023-05-01T10:58:02.503Z,417.00
2023-05-01T10:59:02.591Z,418.00
2023-05-01T11:00:02.722Z,416.00
2023-05-01T11:01:02.907Z,419.00
2023-05-01T11:02:02.976Z,420.00
2023-05-01T11:03:03.200Z,420.00
2023-05-01T11:04:03.313Z,418.00
2023-05-01T11:05:03.515Z,417.00
2023-05-01T11:06:03.807Z,418.00
2023-05-01T11:07:03.788Z,418.00
2023-05-01T11:08:03.798Z,414.00
2023-05-01T11:09:03.973Z,409.00
2023-05-01T11:10:04.079Z,408.00
2023-05-01T11:11:04.314Z,408.00
2023-05-01T11:12:04.417Z,414.00
2023-05-01T11:13:04.533Z,415.00
2023-05-01T11:14:04.780Z,415.00
2023-05-01T11:15:04.912Z,415.00
2023-05-01T11:16:05.104Z,416.00
2023-05-01T11:17:05.218Z,418.00
2023-05-01T11:18:05.399Z,417.00
2023-05-01T11:19:05.515Z,417.00
2023-05-01T11:20:05.697Z,416.00
2023-05-01T11:21:05.810Z,417.00
2023-05-01T11:22:05.978Z,418.00
2023-05-01T11:23:06.090Z,421.00
2023-05-01T11:24:06.218Z,417.00
2023-05-01T11:25:06.356Z,420.00
2023-05-01T11:26:06.531Z,419.00
2023-05-01T11:27:06.659Z,420.00
2023-05-01T11:28:07.018Z,420.00
2023-05-01T11:29:06.923Z,420.00
2023-05-01T11:30:07.143Z,421.00
2023-05-01T11:31:07.304Z,421.00
2023-05-01T11:32:07.481Z,420.00
2023-05-01T11:33:10.217Z,419.00
2023-05-01T11:34:07.531Z,419.00
2023-05-01T11:35:07.308Z,418.00
2023-05-01T11:36:07.188Z,417.00
2023-05-01T11:37:07.076Z,416.00
2023-05-01T11:38:07.056Z,417.00
2023-05-01T11:39:06.771Z,414.00
2023-05-01T11:40:06.661Z,420.00
2023-05-01T11:41:06.553Z,417.00
2023-05-01T11:42:06.535Z,420.00
2023-05-01T11:43:06.294Z,420.00
2023-05-01T11:44:06.174Z,421.00
2023-05-01T11:45:06.142Z,423.00
2023-05-01T11:46:06.311Z,422.00
2023-05-01T11:47:06.476Z,421.00
2023-05-01T11:48:06.564Z,417.00
2023-05-01T11:49:06.731Z,418.00
2023-05-01T11:50:06.835Z,419.00
2023-05-01T11:51:06.970Z,419.00
2023-05-01T11:52:07.118Z,422.00
2023-05-01T11:53:07.256Z,418.00
2023-05-01T11:54:07.437Z,416.00
2023-05-01T11:55:07.535Z,415.00
2023-05-01T11:56:19.467Z,414.00
2023-05-01T11:57:08.567Z,414.00
2023-05-01T11:58:07.373Z,414.00
2023-05-01T11:59:07.211Z,413.00
2023-05-01T12:00:07.053Z,414.00
2023-05-01T12:01:07.012Z,413.00
2023-05-01T12:02:06.822Z,412.00
2023-05-01T12:03:06.931Z,412.00
2023-05-01T12:04:06.641Z,412.00
2023-05-01T12:05:06.386Z,411.00
2023-05-01T12:06:06.218Z,413.00
2023-05-01T12:07:06.071Z,410.00
2023-05-01T12:08:05.927Z,411.00
2023-05-01T12:09:05.837Z,411.00
2023-05-01T12:10:05.652Z,413.00
2023-05-01T12:11:05.494Z,414.00
2023-05-01T12:12:05.341Z,413.00
2023-05-01T12:13:05.277Z,412.00
2023-05-01T12:14:05.114Z,413.00
2023-05-01T12:15:05.091Z,417.00
2023-05-01T12:16:04.892Z,416.00
2023-05-01T12:17:04.932Z,418.00
2023-05-01T12:18:04.752Z,415.00
2023-05-01T12:19:04.595Z,415.00
2023-05-01T12:20:04.531Z,414.00
2023-05-01T12:21:04.635Z,412.00
2023-05-01T12:22:04.710Z,415.00
2023-05-01T12:23:04.899Z,415.00
2023-05-01T12:24:05.046Z,414.00
2023-05-01T12:25:05.435Z,416.00
2023-05-01T12:26:05.452Z,418.00
2023-05-01T12:27:05.550Z,421.00
2023-05-01T12:28:05.798Z,421.00
2023-05-01T12:29:05.948Z,420.00
2023-05-01T12:30:06.090Z,421.00